createdAt,value
2022-08-28T00:00:24.524Z,6.27
2022-08-28T00:03:27.965Z,7.62
2022-08-28T00:06:33.124Z,6.95
2022-08-28T00:09:37.282Z,6.43
2022-08-28T00:12:40.093Z,7.53
2022-08-28T00:15:43.145Z,4.50
2022-08-28T00:18:47.098Z,5.62
2022-08-28T00:21:51.021Z,8.85
2022-08-28T00:24:55.040Z,6.85
2022-08-28T00:28:05.325Z,5.03
2022-08-28T00:31:13.405Z,7.77
2022-08-28T00:34:16.555Z,5.20
2022-08-28T00:37:19.754Z,9.82
2022-08-28T00:40:32.860Z,5.00
2022-08-28T00:43:44.240Z,3.80
2022-08-28T00:46:49.003Z,3.97
2022-08-28T00:49:55.923Z,6.45
2022-08-28T00:53:01.522Z,4.20
2022-08-28T00:56:12.953Z,4.95
2022-08-28T00:59:19.227Z,5.82
2022-08-28T01:02:21.884Z,7.27
2022-08-28T01:05:27.082Z,4.82
2022-08-28T01:08:31.422Z,4.87
2022-08-28T01:11:34.784Z,5.80
2022-08-28T01:14:40.652Z,4.60
2022-08-28T01:17:48.336Z,5.80
2022-08-28T01:21:20.303Z,5.68
2022-08-28T01:24:23.923Z,6.53
2022-08-28T01:27:27.053Z,5.55
2022-08-28T01:30:32.316Z,9.68
2022-08-28T01:33:35.058Z,9.50
2022-08-28T01:36:38.322Z,8.27
2022-08-28T01:39:40.980Z,7.95
2022-08-28T01:42:44.678Z,10.75
2022-08-28T01:45:53.045Z,8.00
2022-08-28T01:48:56.133Z,10.27
2022-08-28T01:51:58.966Z,7.28
2022-08-28T01:55:05.133Z,8.63
2022-08-28T01:58:08.704Z,9.80
2022-08-28T02:01:18.326Z,7.40
2022-08-28T02:04:23.068Z,8.03
2022-08-28T02:07:34.485Z,6.10
2022-08-28T02:10:39.226Z,7.53
2022-08-28T02:13:42.667Z,6.90
2022-08-28T02:16:47.410Z,8.32
2022-08-28T02:19:50.782Z,5.83
2022-08-28T02:22:53.774Z,7.35
2022-08-28T02:25:56.493Z,6.47
2022-08-28T02:28:59.650Z,5.35
2022-08-28T02:32:03.459Z,7.70
2022-08-28T02:35:12.123Z,8.07
2022-08-28T02:38:15.018Z,7.20
2022-08-28T02:41:18.672Z,6.68
2022-08-28T02:44:21.384Z,8.70
2022-08-28T02:47:25.348Z,7.32
2022-08-28T02:50:30.104Z,11.33
2022-08-28T02:53:33.196Z,8.88
2022-08-28T02:56:35.809Z,9.13
2022-08-28T02:59:39.144Z,8.27
2022-08-28T03:02:42.424Z,9.65
2022-08-28T03:05:45.457Z,9.57
2022-08-28T03:08:48.103Z,10.80
2022-08-28T03:11:54.117Z,9.00
2022-08-28T03:14:57.082Z,9.77
2022-08-28T03:18:00.019Z,7.87
2022-08-28T03:21:03.619Z,7.43
2022-08-28T03:24:06.848Z,9.40
2022-08-28T03:27:09.560Z,9.77
2022-08-28T03:30:12.892Z,10.00
2022-08-28T03:33:16.149Z,8.13
2022-08-28T03:36:22.866Z,8.27
2022-08-28T03:39:25.503Z,6.40
2022-08-28T03:42:28.549Z,8.93
2022-08-28T03:45:31.191Z,9.48
2022-08-28T03:48:37.163Z,9.15
2022-08-28T03:51:41.077Z,10.83
2022-08-28T03:54:44.041Z,10.35
2022-08-28T03:57:46.673Z,10.77
2022-08-28T04:00:51.157Z,9.82
2022-08-28T04:03:54.302Z,11.15
2022-08-28T04:06:57.736Z,9.80
2022-08-28T04:10:00.899Z,10.88
2022-08-28T04:13:04.059Z,10.98
2022-08-28T04:16:10.890Z,10.65
2022-08-28T04:19:14.106Z,10.15
2022-08-28T04:22:17.010Z,9.60
2022-08-28T04:25:23.100Z,10.57
2022-08-28T04:28:27.765Z,13.70
2022-08-28T04:31:32.842Z,10.32
2022-08-28T04:34:37.972Z,11.02
2022-08-28T04:37:41.780Z,10.57
2022-08-28T04:40:44.923Z,10.52
2022-08-28T04:43:47.860Z,11.55
2022-08-28T04:46:51.997Z,12.48
2022-08-28T04:49:55.575Z,11.50
2022-08-28T04:52:58.913Z,15.23
2022-08-28T04:56:05.320Z,12.10
2022-08-28T04:59:08.819Z,13.25
2022-08-28T05:02:12.599Z,11.43
2022-08-28T05:05:15.636Z,11.70
2022-08-28T05:08:22.499Z,11.00
2022-08-28T05:11:34.194Z,11.43
2022-08-28T05:14:37.945Z,9.90
2022-08-28T05:17:40.985Z,11.93
2022-08-28T05:20:46.037Z,10.57
2022-08-28T05:23:51.553Z,11.03
2022-08-28T05:26:54.243Z,11.27
2022-08-28T05:30:01.752Z,13.45
2022-08-28T05:33:07.114Z,14.70
2022-08-28T05:36:10.726Z,15.27
2022-08-28T05:39:13.703Z,10.20
2022-08-28T05:42:16.679Z,12.57
2022-08-28T05:45:20.814Z,11.07
2022-08-28T05:48:23.782Z,11.25
2022-08-28T05:51:27.555Z,9.32
2022-08-28T05:54:30.584Z,10.27
2022-08-28T05:57:33.321Z,11.25
2022-08-28T06:00:36.229Z,11.90
2022-08-28T06:03:41.238Z,10.73
2022-08-28T06:06:44.909Z,17.20
2022-08-28T06:09:48.041Z,12.93
2022-08-28T06:12:50.646Z,9.70
2022-08-28T06:15:53.955Z,10.15
2022-08-28T06:18:57.882Z,12.45
2022-08-28T06:22:07.262Z,12.98
2022-08-28T06:25:14.422Z,10.87
2022-08-28T06:28:22.490Z,10.68
2022-08-28T06:31:28.755Z,10.52
2022-08-28T06:34:35.545Z,10.95
2022-08-28T06:37:38.275Z,10.02
2022-08-28T06:40:46.972Z,10.07
2022-08-28T06:43:50.842Z,11.00
2022-08-28T06:46:55.043Z,9.13
2022-08-28T06:49:57.753Z,13.93
2022-08-28T06:53:01.547Z,10.05
2022-08-28T06:56:08.883Z,11.83
2022-08-28T06:59:12.222Z,11.73
2022-08-28T07:02:15.774Z,10.13
2022-08-28T07:05:18.968Z,11.48
2022-08-28T07:08:21.770Z,10.82
2022-08-28T07:11:29.051Z,11.47
2022-08-28T07:14:31.768Z,10.30
2022-08-28T07:17:34.771Z,10.48
2022-08-28T07:20:37.408Z,10.98
2022-08-28T07:23:42.405Z,10.10
2022-08-28T07:26:47.180Z,9.63
2022-08-28T07:29:51.085Z,9.73
2022-08-28T07:32:53.762Z,11.50
2022-08-28T07:35:58.227Z,11.93
2022-08-28T07:39:00.992Z,11.27
2022-08-28T07:42:05.065Z,10.23
2022-08-28T07:45:08.249Z,10.02
2022-08-28T07:48:11.758Z,12.32
2022-08-28T07:51:14.685Z,8.85
2022-08-28T07:54:18.401Z,10.15
2022-08-28T07:57:21.806Z,11.33
2022-08-28T08:00:25.927Z,11.20
2022-08-28T08:03:31.742Z,8.95
2022-08-28T08:06:35.652Z,8.77
2022-08-28T08:09:43.444Z,9.45
2022-08-28T08:12:46.412Z,10.23
2022-08-28T08:15:50.647Z,8.97
2022-08-28T08:18:53.733Z,9.80
2022-08-28T08:21:57.021Z,12.95
2022-08-28T08:25:00.758Z,10.77
2022-08-28T08:28:04.971Z,8.90
2022-08-28T08:31:16.727Z,11.83
2022-08-28T08:34:19.955Z,9.90
2022-08-28T08:37:22.821Z,9.50
2022-08-28T08:40:26.066Z,8.63
2022-08-28T08:43:34.317Z,8.93
2022-08-28T08:46:49.231Z,11.27
2022-08-28T08:49:58.117Z,9.20
2022-08-28T08:53:03.899Z,9.20
2022-08-28T08:56:07.126Z,11.45
2022-08-28T08:59:16.474Z,7.10
2022-08-28T09:02:28.493Z,7.47
2022-08-28T09:05:54.326Z,8.10
2022-08-28T09:09:02.124Z,7.30
2022-08-28T09:12:20.864Z,7.35
2022-08-28T09:15:39.149Z,6.00
2022-08-28T09:18:46.144Z,6.63
2022-08-28T09:21:51.286Z,8.45
2022-08-28T09:24:54.401Z,8.70
2022-08-28T09:28:07.331Z,9.18
2022-08-28T09:31:16.079Z,8.00
2022-08-28T09:34:27.663Z,9.20
2022-08-28T09:37:34.351Z,7.82
2022-08-28T09:40:56.176Z,7.85
2022-08-28T09:43:59.155Z,7.80
2022-08-28T09:47:02.613Z,7.40
2022-08-28T09:50:20.546Z,8.07
2022-08-28T09:53:25.908Z,8.63
2022-08-28T09:56:33.616Z,6.78
2022-08-28T09:59:36.319Z,8.00
2022-08-28T10:02:54.786Z,8.07
2022-08-28T10:06:15.517Z,8.27
2022-08-28T10:09:32.736Z,7.20
2022-08-28T10:12:50.923Z,8.07
2022-08-28T10:16:10.267Z,7.10
2022-08-28T10:19:40.060Z,7.97
2022-08-28T10:23:03.986Z,9.17
2022-08-28T10:26:29.405Z,6.72
2022-08-28T10:29:50.269Z,7.05
2022-08-28T10:33:15.065Z,6.72
2022-08-28T10:36:33.305Z,6.73
2022-08-28T10:39:48.365Z,6.03
2022-08-28T10:43:06.211Z,7.05
2022-08-28T10:46:28.352Z,9.77
2022-08-28T10:49:42.117Z,6.53
2022-08-28T10:53:08.392Z,6.23
2022-08-28T10:56:17.756Z,7.40
2022-08-28T10:59:21.487Z,7.20
2022-08-28T11:02:28.485Z,8.57
2022-08-28T11:06:03.626Z,6.25
2022-08-28T11:09:26.730Z,5.97
2022-08-28T11:12:36.478Z,6.50
2022-08-28T11:15:42.462Z,7.45
2022-08-28T11:19:08.731Z,7.75
2022-08-28T11:22:22.128Z,7.10
2022-08-28T11:25:34.595Z,8.17
2022-08-28T11:28:47.649Z,7.87
2022-08-28T11:32:29.251Z,6.70
2022-08-28T11:35:43.326Z,5.85
2022-08-28T11:38:54.328Z,6.43
2022-08-28T11:42:13.920Z,7.13
2022-08-28T11:45:45.840Z,7.33
2022-08-28T11:48:53.546Z,5.43
2022-08-28T11:52:17.872Z,6.35
2022-08-28T11:55:39.710Z,5.10
2022-08-28T11:59:01.256Z,6.30
2022-08-28T12:02:32.182Z,7.70
2022-08-28T12:05:44.260Z,5.57
2022-08-28T12:08:51.575Z,5.43
2022-08-28T12:11:58.053Z,6.65
2022-08-28T12:15:11.730Z,7.27
2022-08-28T12:18:36.980Z,6.23
2022-08-28T12:21:41.727Z,5.25
2022-08-28T12:24:49.915Z,6.22
2022-08-28T12:27:55.318Z,5.90
2022-08-28T12:31:07.480Z,5.17
2022-08-28T12:34:29.031Z,7.13
2022-08-28T12:37:51.362Z,6.25
2022-08-28T12:40:56.088Z,5.82
2022-08-28T12:44:01.687Z,7.10
2022-08-28T12:47:05.939Z,5.37
2022-08-28T12:50:39.229Z,7.47
2022-08-28T12:53:55.488Z,5.43
2022-08-28T12:56:59.787Z,4.78
2022-08-28T13:00:09.357Z,7.50
2022-08-28T13:03:12.615Z,4.50
2022-08-28T13:06:29.537Z,5.10
2022-08-28T13:09:32.787Z,6.43
2022-08-28T13:12:56.235Z,5.75
2022-08-28T13:16:25.274Z,5.10
2022-08-28T13:19:35.930Z,5.60
2022-08-28T13:22:41.884Z,5.07
2022-08-28T13:26:04.452Z,6.47
2022-08-28T13:29:20.399Z,5.03
2022-08-28T13:32:23.538Z,5.15
2022-08-28T13:35:26.489Z,5.40
2022-08-28T13:38:29.388Z,6.10
2022-08-28T13:41:33.961Z,4.60
2022-08-28T13:44:46.761Z,5.20
2022-08-28T13:47:50.619Z,5.40
2022-08-28T13:51:01.615Z,5.50
2022-08-28T13:54:06.566Z,9.30
2022-08-28T13:57:10.107Z,4.78
2022-08-28T14:00:14.699Z,3.92
2022-08-28T14:03:36.180Z,5.10
2022-08-28T14:06:41.457Z,4.87
2022-08-28T14:09:44.443Z,5.77
2022-08-28T14:12:49.040Z,5.93
2022-08-28T14:15:52.560Z,4.68
2022-08-28T14:18:55.164Z,4.70
2022-08-28T14:21:59.423Z,4.30
2022-08-28T14:25:06.630Z,5.10
2022-08-28T14:28:10.412Z,7.05
2022-08-28T14:31:14.796Z,5.07
2022-08-28T14:34:22.884Z,4.75
2022-08-28T14:37:25.644Z,4.80
2022-08-28T14:40:28.756Z,5.97
2022-08-28T14:43:31.824Z,4.75
2022-08-28T14:46:37.190Z,6.87
2022-08-28T14:49:39.993Z,7.28
2022-08-28T14:52:43.604Z,6.17
2022-08-28T14:55:49.588Z,5.73
2022-08-28T14:58:52.585Z,4.97
2022-08-28T15:02:00.252Z,5.50
2022-08-28T15:05:03.322Z,4.25
2022-08-28T15:08:08.721Z,5.03
2022-08-28T15:11:18.509Z,4.43
2022-08-28T15:14:21.585Z,3.97
2022-08-28T15:17:33.713Z,5.32
2022-08-28T15:20:42.909Z,4.68
2022-08-28T15:23:46.438Z,7.70
2022-08-28T15:26:49.214Z,5.80
2022-08-28T15:29:52.674Z,6.15
2022-08-28T15:32:55.289Z,5.82
2022-08-28T15:35:58.617Z,6.10
2022-08-28T15:39:20.278Z,4.57
2022-08-28T15:42:23.609Z,4.87
2022-08-28T15:45:26.961Z,5.53
2022-08-28T15:48:32.136Z,5.78
2022-08-28T15:51:36.362Z,7.10
2022-08-28T15:54:40.695Z,5.70
2022-08-28T15:57:43.515Z,8.90
2022-08-28T16:00:46.638Z,6.68
2022-08-28T16:03:49.800Z,6.03
2022-08-28T16:07:00.438Z,8.52
2022-08-28T16:10:07.339Z,6.20
2022-08-28T16:13:10.010Z,6.87
2022-08-28T16:16:13.735Z,8.55
2022-08-28T16:19:16.398Z,7.20
2022-08-28T16:22:20.483Z,7.18
2022-08-28T16:25:23.185Z,6.90
2022-08-28T16:28:27.115Z,6.70
2022-08-28T16:31:30.060Z,6.62
2022-08-28T16:34:34.090Z,6.80
2022-08-28T16:37:40.024Z,7.90
2022-08-28T16:40:47.906Z,8.03
2022-08-28T16:43:51.344Z,7.90
2022-08-28T16:46:56.780Z,7.40
2022-08-28T16:50:02.887Z,8.20
2022-08-28T16:53:07.189Z,7.85
2022-08-28T16:56:11.541Z,8.07
2022-08-28T16:59:23.495Z,7.83
2022-08-28T17:02:28.377Z,8.38
2022-08-28T17:05:33.231Z,7.78
2022-08-28T17:08:35.930Z,10.18
2022-08-28T17:11:39.588Z,7.53
2022-08-28T17:14:43.858Z,8.03
2022-08-28T17:17:49.319Z,8.45
2022-08-28T17:21:10.618Z,9.88
2022-08-28T17:24:13.901Z,8.63
2022-08-28T17:27:22.433Z,9.20
2022-08-28T17:30:27.188Z,9.63
2022-08-28T17:33:30.369Z,11.10
2022-08-28T17:36:34.421Z,8.80
2022-08-28T17:39:37.463Z,10.32
2022-08-28T17:42:40.812Z,10.23
2022-08-28T17:45:43.671Z,11.50
2022-08-28T17:48:54.294Z,12.57
2022-08-28T17:51:59.261Z,9.77
2022-08-28T17:55:02.284Z,10.65
2022-08-28T17:58:06.808Z,11.30
2022-08-28T18:01:10.382Z,12.40
2022-08-28T18:04:20.100Z,10.93
2022-08-28T18:07:26.186Z,13.23
2022-08-28T18:10:33.975Z,10.18
2022-08-28T18:13:40.217Z,10.83
2022-08-28T18:16:43.791Z,14.13
2022-08-28T18:19:46.808Z,9.90
2022-08-28T18:22:50.370Z,8.15
2022-08-28T18:25:53.329Z,10.40
2022-08-28T18:28:56.737Z,11.00
2022-08-28T18:32:02.047Z,11.57
2022-08-28T18:35:05.714Z,9.40
2022-08-28T18:38:09.975Z,10.13
2022-08-28T18:41:13.665Z,10.55
2022-08-28T18:44:19.177Z,12.73
2022-08-28T18:47:24.493Z,13.00
2022-08-28T18:50:31.100Z,12.90
2022-08-28T18:53:35.055Z,14.02
2022-08-28T18:56:38.430Z,12.70
2022-08-28T18:59:42.007Z,11.80
2022-08-28T19:02:46.298Z,12.13
2022-08-28T19:05:50.159Z,14.82
2022-08-28T19:08:53.512Z,12.15
2022-08-28T19:11:57.900Z,11.23
2022-08-28T19:15:01.443Z,11.60
2022-08-28T19:18:06.027Z,10.47
2022-08-28T19:21:20.127Z,11.52
2022-08-28T19:24:26.285Z,11.25
2022-08-28T19:27:30.067Z,10.48
2022-08-28T19:30:35.160Z,12.47
2022-08-28T19:33:39.786Z,10.90
2022-08-28T19:36:43.301Z,10.43
2022-08-28T19:39:48.328Z,10.20
2022-08-28T19:43:00.632Z,10.43
2022-08-28T19:46:10.072Z,10.87
2022-08-28T19:49:22.180Z,11.23
2022-08-28T19:52:25.519Z,11.20
2022-08-28T19:55:29.430Z,9.65
2022-08-28T19:58:33.269Z,10.77
2022-08-28T20:01:40.758Z,13.53
2022-08-28T20:04:44.150Z,11.40
2022-08-28T20:07:47.357Z,10.60
2022-08-28T20:10:51.351Z,10.93
2022-08-28T20:13:57.765Z,13.88
2022-08-28T20:17:02.422Z,9.70
2022-08-28T20:20:08.253Z,9.87
2022-08-28T20:23:11.944Z,10.20
2022-08-28T20:26:15.511Z,10.25
2022-08-28T20:29:19.440Z,9.32
2022-08-28T20:32:22.172Z,10.80
2022-08-28T20:35:25.610Z,9.60
2022-08-28T20:38:32.841Z,12.50
2022-08-28T20:41:38.176Z,10.25
2022-08-28T20:44:41.929Z,13.13
2022-08-28T20:47:45.633Z,12.50
2022-08-28T20:50:48.533Z,11.93
2022-08-28T20:53:53.851Z,11.15
2022-08-28T20:56:59.021Z,12.25
2022-08-28T21:00:05.660Z,10.52
2022-08-28T21:03:12.325Z,11.77
2022-08-28T21:06:15.372Z,11.97
2022-08-28T21:09:18.674Z,11.35
2022-08-28T21:12:22.673Z,12.55
2022-08-28T21:15:27.405Z,11.30
2022-08-28T21:18:30.398Z,11.30
2022-08-28T21:21:34.776Z,9.87
2022-08-28T21:24:37.983Z,11.55
2022-08-28T21:27:40.723Z,13.65
2022-08-28T21:30:43.783Z,10.38
2022-08-28T21:33:47.146Z,9.37
2022-08-28T21:36:51.113Z,11.80
2022-08-28T21:39:54.284Z,11.95
2022-08-28T21:42:59.489Z,11.23
2022-08-28T21:46:03.808Z,12.80
2022-08-28T21:49:06.959Z,10.97
2022-08-28T21:52:09.609Z,10.90
2022-08-28T21:55:15.201Z,10.73
2022-08-28T21:58:18.897Z,11.50
2022-08-28T22:01:24.675Z,9.77
2022-08-28T22:04:28.702Z,9.57
2022-08-28T22:07:31.933Z,11.33
2022-08-28T22:10:38.628Z,9.95
2022-08-28T22:13:43.318Z,9.93
2022-08-28T22:16:46.693Z,10.35
2022-08-28T22:19:49.552Z,8.47
2022-08-28T22:23:13.969Z,9.13
2022-08-28T22:26:19.739Z,11.60
2022-08-28T22:29:22.827Z,9.70
2022-08-28T22:32:27.148Z,8.52
2022-08-28T22:35:31.356Z,10.20
2022-08-28T22:38:34.044Z,9.50
2022-08-28T22:41:37.892Z,10.88
2022-08-28T22:44:40.845Z,7.57
2022-08-28T22:47:44.156Z,7.20
2022-08-28T22:50:48.352Z,7.90
2022-08-28T22:53:53.324Z,7.80
2022-08-28T23:00:03.043Z,7.05
2022-08-28T23:03:05.829Z,6.22
2022-08-28T23:06:09.008Z,8.20
2022-08-28T23:09:11.738Z,6.33
2022-08-28T23:12:14.994Z,8.13
2022-08-28T23:15:21.092Z,7.78
2022-08-28T23:18:24.217Z,6.82
2022-08-28T23:21:28.638Z,7.03
2022-08-28T23:24:31.717Z,7.43
2022-08-28T23:27:36.518Z,7.07
2022-08-28T23:30:48.240Z,7.10
2022-08-28T23:33:52.556Z,6.55
2022-08-28T23:36:55.789Z,6.73
2022-08-28T23:40:01.409Z,6.10
2022-08-28T23:43:04.580Z,7.60
2022-08-28T23:46:07.336Z,7.05
2022-08-28T23:49:11.946Z,7.22
2022-08-28T23:52:15.517Z,6.80
2022-08-28T23:55:20.130Z,6.93
2022-08-28T23:58:22.795Z,8.30
